Latest Weather Observations for Douglas River

IDD60801

Issued at 10:01 am CST Thursday 18 December 2014 (issued every 30 minutes, with the page automatically refreshed every 10 minutes)

About weather observations | Map of weather stations | Latest weather observations for NT | Other Formats
Station Details ID: 014901 Name: DOUGLAS RIVER Lat: -13.83 Lon: 131.19 Height: 42.8 m
Data from the previous 72 hours. | See also: Recent months at Douglas River
Date/Time
CST
Temp
°C
App
Temp
°C
Dew
Point
Rel
Hum
%
Delta-T
°C
Wind Press
QNH
hPa
Press
MSL
hPa
Rain
since 9 am
mm
Dir
 
Spd
km/h
Gust
km/h
Spd
kts
Gust
kts
18/10:00am 31.8 38.0 26.7 74 3.7 WSW 7 13 4 7 1010.2 1009.9 0.0
18/09:30am 30.5 37.2 26.5 79 2.9 WNW 4 13 2 7 1010.0 1009.7 0.0
18/09:00am 29.2 36.3 26.0 83 2.3 CALM 0 6 0 3 1009.9 1009.6 0.6
18/08:30am 28.5 35.0 25.7 85 2.0 NE 2 7 1 4 1009.5 1009.2 0.6
18/08:00am 27.3 32.8 25.3 89 1.4 ESE 6 9 3 5 1009.2 1008.9 0.6
18/07:30am 26.8 33.3 25.1 90 1.2 CALM 0 0 0 0 1008.7 1008.4 0.6
18/07:00am 25.5 31.7 24.6 95 0.6 CALM 0 0 0 0 1008.4 1008.1 0.6
18/06:30am 24.5 30.3 23.9 96 0.4 CALM 0 0 0 0 1007.8 1007.5 0.6
18/06:00am 24.6 30.4 24.0 96 0.4 CALM 0 0 0 0 1007.3 1007.0 0.6
18/05:30am 24.8 30.8 24.2 96 0.4 CALM 0 0 0 0 1006.9 1006.6 0.6
18/05:00am 24.9 30.7 24.0 95 0.6 CALM 0 0 0 0 1006.8 1006.5 0.6
18/04:30am 25.0 30.1 24.0 94 0.7 ENE 4 7 2 4 1006.7 1006.4 0.6
18/04:00am 25.0 30.5 24.0 94 0.7 ENE 2 6 1 3 1006.7 1006.4 0.6
18/03:30am 25.1 30.3 24.2 95 0.6 E 4 9 2 5 1006.8 1006.5 0.6
18/03:00am 25.1 30.9 23.9 93 0.8 CALM 0 0 0 0 1006.7 1006.4 0.6
18/02:30am 25.0 30.5 24.0 94 0.7 S 2 6 1 3 1006.9 1006.6 0.6
18/02:00am 25.1 30.9 23.9 93 0.8 CALM 0 0 0 0 1007.0 1006.7 0.6
18/01:30am 25.2 31.2 24.2 94 0.7 CALM 0 0 0 0 1007.0 1006.7 0.6
18/01:00am 25.4 31.3 24.1 92 0.9 CALM 0 0 0 0 1007.3 1007.0 0.6
18/12:30am 25.3 30.7 23.8 91 1.0 NNE 2 6 1 3 1007.5 1007.2 0.6
18/12:00am 25.5 30.9 23.8 90 1.2 NE 2 6 1 3 1007.7 1007.4 0.6
 
Date/Time
CST
Temp
°C
App
Temp
°C
Dew
Point
Rel
Hum
%
Delta-T
°C
Wind Press
QNH
hPa
Press
MSL
hPa
Rain
since 9 am
mm
Dir
 
Spd
km/h
Gust
km/h
Spd
kts
Gust
kts
17/11:30pm 25.3 29.5 23.2 88 1.4 NNE 6 7 3 4 1007.3 1007.0 0.6
17/11:00pm 25.6 27.9 22.8 84 1.9 WSW 15 19 8 10 1007.0 1006.7 0.6
17/10:30pm 25.5 27.0 22.7 84 1.9 SE 19 32 10 17 1008.0 1007.7 0.6
17/10:00pm 25.8 29.2 22.7 83 2.1 WNW 9 17 5 9 1006.1 1005.7 0.4
17/09:30pm 25.6 29.3 22.5 83 2.1 WSW 7 13 4 7 1007.3 1007.0 0.4
17/09:00pm 25.3 29.0 22.3 83 2.0 NW 6 9 3 5 1007.4 1007.1 0.4
17/08:30pm 25.0 28.7 22.5 86 1.7 ENE 7 19 4 10 1008.7 1008.4 0.4
17/08:00pm 26.6 24.7 20.9 71 3.8 ESE 32 44 17 24 1009.4 1009.1 0.4
17/07:39pm 27.2 27.6 21.8 72 3.6 SE 22 41 12 22 1009.5 1009.2 0.4
17/07:38pm 27.2 26.1 21.8 72 3.6 SE 30 41 16 22 1009.4 - 0.4
17/07:30pm 26.3 29.8 22.8 81 2.4 SE 9 17 5 9 1008.4 1008.1 0.4
17/07:19pm 27.0 30.8 22.7 77 2.9 S 7 13 4 7 1007.5 - 0.4
17/07:00pm 28.1 32.9 24.1 79 2.8 WNW 6 9 3 5 1007.1 1006.8 0.4
17/06:30pm 28.2 31.2 24.0 78 2.9 WSW 15 20 8 11 1005.6 1005.2 0.4
17/06:00pm 28.6 30.7 23.7 75 3.4 W 19 26 10 14 1005.7 1005.3 0.4
17/05:30pm 29.0 33.5 24.6 77 3.1 NW 9 20 5 11 1004.7 1004.3 0.4
17/05:00pm 29.0 33.7 24.3 76 3.3 NNW 7 15 4 8 1002.7 1002.3 0.4
17/04:30pm 33.1 35.6 22.5 53 7.3 N 13 22 7 12 1003.2 1002.8 0.0
17/04:00pm 37.3 40.0 22.1 41 10.5 W 11 17 6 9 1003.1 1002.7 0.0
17/03:30pm 36.5 40.7 23.2 46 9.3 SSW 6 24 3 13 1003.6 1003.2 0.0
17/03:00pm 36.9 40.6 23.2 45 9.6 W 9 17 5 9 1003.6 1003.2 0.0
17/02:30pm 37.2 41.8 24.7 48 8.9 WNW 9 15 5 8 1004.1 1003.7 0.0
17/02:00pm 36.3 39.8 23.5 47 9.0 NW 11 17 6 9 1005.0 1004.6 0.0
17/01:30pm 36.0 40.6 24.8 52 8.0 NW 9 15 5 8 1005.6 1005.2 0.0
17/01:00pm 35.5 39.5 23.7 50 8.3 NW 9 17 5 9 1006.3 1005.9 0.0
17/12:30pm 35.3 39.7 24.4 53 7.7 W 9 17 5 9 1006.9 1006.6 0.0
17/12:00pm 35.1 39.5 24.5 54 7.5 WNW 9 19 5 10 1007.4 1007.1 0.0
17/11:30am 33.9 38.8 25.3 60 6.1 NW 9 15 5 8 1007.8 1007.5 0.0
17/11:00am 33.7 38.3 25.3 61 6.0 W 11 19 6 10 1008.0 1007.7 0.0
17/10:30am 32.1 37.4 25.9 70 4.4 WNW 9 15 5 8 1008.1 1007.8 0.0
17/10:00am 32.2 38.0 26.1 70 4.4 NW 7 13 4 7 1008.2 1007.9 0.0
17/09:30am 31.5 37.2 26.5 75 3.6 W 9 15 5 8 1008.2 1007.9 0.0
17/09:00am 30.5 36.6 26.5 79 2.9 NW 7 15 4 8 1008.2 1007.9 0.6
17/08:30am 30.0 36.4 26.9 83 2.2 W 7 15 4 8 1008.1 1007.8 0.6
17/08:00am 29.2 35.7 26.8 87 1.7 NW 6 11 3 6 1007.9 1007.6 0.6
17/07:30am 27.9 35.5 26.8 94 0.8 CALM 0 0 0 0 1007.4 1007.1 0.6
17/07:00am 26.9 34.6 26.9 100 0.0 CALM 0 0 0 0 1007.2 1006.9 0.6
17/06:30am 25.9 32.7 25.5 98 0.3 CALM 0 0 0 0 1006.6 1006.3 0.6
17/06:00am 25.6 32.1 25.0 96 0.4 CALM 0 0 0 0 1006.1 1005.7 0.6
17/05:30am 25.9 32.5 25.3 96 0.4 CALM 0 4 0 2 1005.8 1005.4 0.6
17/05:00am 25.6 32.1 25.0 96 0.4 CALM 0 0 0 0 1005.6 1005.2 0.6
17/04:30am 25.4 31.7 24.8 96 0.4 CALM 0 0 0 0 1005.5 1005.1 0.6
17/04:00am 25.7 32.2 25.0 96 0.5 CALM 0 0 0 0 1005.7 1005.3 0.6
17/03:30am 25.8 32.3 25.1 96 0.5 CALM 0 0 0 0 1005.4 1005.0 0.6
17/03:00am 25.8 32.3 25.1 96 0.5 CALM 0 0 0 0 1005.5 1005.1 0.6
17/02:30am 25.9 32.4 25.0 95 0.6 CALM 0 0 0 0 1005.6 1005.2 0.6
17/02:00am 26.1 32.6 25.1 94 0.7 CALM 0 0 0 0 1005.7 1005.3 0.6
17/01:30am 25.9 32.3 24.9 94 0.7 CALM 0 0 0 0 1006.1 1005.7 0.6
17/01:00am 25.8 31.6 24.5 92 0.9 NNE 2 6 1 3 1006.5 1006.2 0.6
17/12:30am 25.8 31.5 24.4 92 1.0 NNE 2 6 1 3 1006.6 1006.3 0.6
17/12:00am 25.9 32.2 24.8 94 0.8 CALM 0 0 0 0 1007.1 1006.8 0.6
 
Date/Time
CST
Temp
°C
App
Temp
°C
Dew
Point
Rel
Hum
%
Delta-T
°C
Wind Press
QNH
hPa
Press
MSL
hPa
Rain
since 9 am
mm
Dir
 
Spd
km/h
Gust
km/h
Spd
kts
Gust
kts
16/11:30pm 26.2 32.2 24.2 89 1.4 CALM 0 0 0 0 1007.2 1006.9 0.6
16/11:00pm 25.8 31.6 23.9 89 1.3 CALM 0 0 0 0 1007.3 1007.0 0.6
16/10:30pm 25.8 31.2 23.8 89 1.4 SW 2 7 1 4 1006.8 1006.5 0.6
16/10:00pm 26.0 31.6 23.5 86 1.7 CALM 0 0 0 0 1006.5 1006.2 0.6
16/09:30pm 25.8 31.2 23.3 86 1.7 CALM 0 0 0 0 1006.5 1006.2 0.6
16/09:00pm 26.3 30.6 22.6 80 2.5 NW 4 7 2 4 1006.1 1005.7 0.6
16/08:30pm 26.4 29.9 21.8 76 3.1 W 6 11 3 6 1005.7 1005.3 0.6
16/08:00pm 26.8 30.2 21.7 73 3.4 WNW 6 9 3 5 1005.5 1005.1 0.6
16/07:30pm 27.4 29.9 21.1 68 4.2 WNW 9 15 5 8 1005.0 1004.6 0.6
16/07:00pm 28.2 30.1 22.1 69 4.1 NW 15 28 8 15 1004.5 1004.1 0.6
16/06:30pm 29.4 32.7 22.5 66 4.7 NW 9 17 5 9 1003.9 1003.5 0.6
16/06:00pm 29.1 32.8 22.5 67 4.5 NNW 7 15 4 8 1003.3 1002.9 0.4
16/05:30pm 28.8 31.3 22.5 68 4.3 NNW 13 24 7 13 1003.1 1002.7 0.4
16/05:00pm 30.8 34.2 24.1 67 4.7 NNE 13 32 7 17 1003.1 1002.7 0.0
16/04:57pm 31.7 35.0 23.8 63 5.5 NE 13 32 7 17 1003.0 1002.6 0.0
16/04:56pm 31.7 35.0 23.8 63 5.5 NNE 13 32 7 17 1002.9 - 0.0
16/04:30pm 36.9 40.5 23.7 46 9.3 W 11 20 6 11 1002.9 1002.5 0.0
16/04:00pm 37.0 39.6 24.0 47 9.2 WSW 17 26 9 14 1003.2 1002.8 0.0
16/03:30pm 37.0 39.1 23.1 44 9.7 WSW 17 30 9 16 1003.6 1003.2 0.0
16/03:00pm 37.4 40.9 23.5 45 9.8 WNW 11 19 6 10 1004.5 1004.1 0.0
16/02:30pm 37.1 40.6 23.6 46 9.5 WNW 11 19 6 10 1005.2 1004.8 0.0
16/02:00pm 36.5 39.9 23.4 47 9.2 W 11 19 6 10 1005.7 1005.3 0.0
16/01:30pm 36.4 40.0 24.3 49 8.6 W 13 22 7 12 1006.2 1005.8 0.0
16/01:00pm 35.1 38.7 23.7 51 8.0 WNW 11 20 6 11 1006.8 1006.5 0.0
16/12:30pm 35.4 40.3 25.2 55 7.3 W 9 20 5 11 1007.1 1006.8 0.0
16/12:00pm 34.8 39.6 25.1 57 6.9 WNW 9 17 5 9 1007.7 1007.4 0.0
16/11:30am 34.1 39.2 25.6 61 6.1 WNW 9 17 5 9 1008.2 1007.9 0.0
16/11:00am 33.6 38.5 25.8 63 5.6 W 11 22 6 12 1008.5 1008.2 0.0
16/10:30am 32.8 38.1 25.8 66 5.0 WNW 9 15 5 8 1008.7 1008.4 0.0
16/10:00am 32.2 37.9 26.4 71 4.2 NW 9 15 5 8 1008.8 1008.5 0.0
16/09:30am 31.3 36.3 26.6 76 3.4 W 13 17 7 9 1008.9 1008.6 0.0
16/09:00am 30.8 36.6 26.6 78 3.0 NW 9 17 5 9 1008.8 1008.5 0.0
16/08:30am 30.5 36.4 26.7 80 2.7 NW 9 15 5 8 1008.7 1008.4 0.0
16/08:00am 29.5 35.9 26.7 85 2.0 NNW 6 9 3 5 1008.5 1008.2 0.0
16/07:30am 27.9 35.3 26.5 92 1.0 CALM 0 4 0 2 1008.3 1008.0 0.0
16/07:00am 26.7 33.6 25.7 94 0.7 CALM 0 0 0 0 1007.9 1007.6 0.0
16/06:30am 26.3 33.1 25.6 96 0.5 CALM 0 0 0 0 1007.5 1007.2 0.0
16/06:00am 25.9 32.5 25.3 96 0.4 CALM 0 0 0 0 1007.0 1006.7 0.0
16/05:30am 25.9 32.5 25.3 96 0.4 CALM 0 0 0 0 1006.7 1006.4 0.0
16/05:00am 25.5 31.8 24.8 96 0.5 CALM 0 6 0 3 1006.4 1006.1 0.0
16/04:30am 25.1 31.2 24.5 96 0.4 CALM 0 0 0 0 1005.9 1005.5 0.0
16/04:00am 25.1 31.2 24.5 96 0.4 CALM 0 6 0 3 1005.8 1005.4 0.0
16/03:30am 25.4 31.7 24.7 96 0.5 CALM 0 0 0 0 1005.9 1005.5 0.0
16/03:00am 25.7 32.0 24.8 95 0.6 CALM 0 0 0 0 1006.1 1005.7 0.0
16/02:30am 25.8 32.1 24.8 94 0.7 CALM 0 0 0 0 1006.4 1006.1 0.0
16/02:00am 26.1 31.8 25.0 94 0.8 N 4 6 2 3 1006.3 1005.9 0.0
16/01:30am 26.1 32.4 24.8 92 0.9 CALM 0 6 0 3 1006.7 1006.4 0.0
16/01:00am 26.1 32.4 24.7 92 1.0 CALM 0 0 0 0 1006.9 1006.6 0.0
16/12:30am 26.2 32.3 24.5 90 1.2 CALM 0 6 0 3 1007.0 1006.7 0.0
16/12:00am 26.3 32.4 24.4 89 1.3 CALM 0 0 0 0 1007.3 1007.0 0.0
 
Date/Time
CST
Temp
°C
App
Temp
°C
Dew
Point
Rel
Hum
%
Delta-T
°C
Wind Press
QNH
hPa
Press
MSL
hPa
Rain
since 9 am
mm
Dir
 
Spd
km/h
Gust
km/h
Spd
kts
Gust
kts
15/11:30pm 26.3 32.3 24.3 89 1.4 CALM 0 4 0 2 1007.6 1007.3 0.0
15/11:00pm 26.5 31.9 23.9 85 1.8 NW 2 7 1 4 1007.5 1007.2 0.0
15/10:30pm 26.4 30.5 23.2 82 2.2 NW 7 11 4 6 1007.3 1007.0 0.0
15/10:00pm 26.5 30.4 22.5 78 2.7 NW 6 13 3 7 1007.3 1007.0 0.0
15/09:30pm 26.6 29.7 22.1 76 3.0 WNW 9 13 5 7 1006.7 1006.4 0.0
15/09:00pm 26.8 30.4 22.0 75 3.2 WNW 6 11 3 6 1006.5 1006.2 0.0
15/08:30pm 27.2 29.7 21.7 72 3.7 NW 11 17 6 9 1006.3 1005.9 0.0
15/08:00pm 27.7 31.6 22.5 73 3.5 NW 6 9 3 5 1005.7 1005.3 0.0
15/07:30pm 28.6 32.1 22.1 68 4.4 NW 7 17 4 9 1005.6 1005.2 0.0
15/07:00pm 29.5 33.2 22.5 66 4.8 NW 7 15 4 8 1005.5 1005.1 0.0
15/06:30pm 32.5 35.7 21.6 52 7.4 WNW 7 15 4 8 1005.3 1004.9 0.0
15/06:00pm 33.2 35.4 20.4 47 8.6 NW 9 15 5 8 1004.5 1004.1 0.0
15/05:30pm 31.8 33.1 19.3 47 8.2 NNW 11 24 6 13 1003.9 1003.5 0.0
15/05:24pm 32.3 34.2 19.8 47 8.3 N 9 19 5 10 1004.0 - 0.0
15/05:00pm 36.1 40.7 24.2 50 8.4 NE 7 13 4 7 1003.6 1003.2 0.0
15/04:30pm 37.5 41.1 23.1 43 10.1 W 9 13 5 7 1003.6 1003.2 0.0
15/04:00pm 37.4 41.0 23.1 44 10.0 WSW 9 13 5 7 1003.8 1003.4 0.0
15/03:30pm 37.0 41.6 23.8 46 9.3 W 6 17 3 9 1004.0 1003.6 0.0
15/03:00pm 36.4 40.5 23.9 48 8.8 WSW 9 19 5 10 1004.6 1004.2 0.0
15/02:30pm 36.5 40.6 24.5 50 8.5 WSW 11 19 6 10 1005.4 1005.0 0.0
15/02:00pm 36.5 40.9 24.5 50 8.5 NW 9 19 5 10 1005.8 1005.4 0.0
15/01:30pm 35.6 39.9 24.3 52 8.0 WSW 9 20 5 11 1006.5 1006.2 0.0
15/01:00pm 35.0 38.4 24.1 53 7.7 W 13 20 7 11 1006.9 1006.6 0.0
15/12:30pm 35.0 39.2 24.7 55 7.3 W 11 15 6 8 1007.5 1007.2 0.0
15/12:00pm 34.2 37.7 24.9 58 6.6 WSW 15 22 8 12 1008.1 1007.8 0.0
15/11:30am 33.5 37.6 25.2 62 5.9 WSW 13 20 7 11 1008.5 1008.2 0.0
15/11:00am 33.1 37.6 25.8 65 5.2 W 13 20 7 11 1009.0 1008.7 0.0
15/10:30am 33.0 37.8 25.7 65 5.2 W 11 19 6 10 1009.2 1008.9 0.0

Other Formats:

Comma delimited format used in spreadsheet applications
http://www.bom.gov.au/fwo/IDD60801/IDD60801.94128.axf

JavaScript Object Notation format (JSON) in row-major order
http://www.bom.gov.au/fwo/IDD60801/IDD60801.94128.json